Morristown, NJ

2:00 AM EST on December 06, 2016 (GMT -0500)
Wheatsheaf | | Change Station

Elev 406 ft 40.81 °N, 74.50 °W | Updated 4 minutes ago

Clear
Clear
28.8 °F
Feels Like 29 °F
N
0.0
Wind Variable Wind from SSW
Gusts 0.0 mph

Today
High -- | Low -- °F
--% Chance of Precip.
Yesterday
High -- | Low -- °F
Precip. -- in
Pressure 30.13 in
Visibility 7.0 miles
Clouds Clear
Windchill 29 °F
Dew Point 25 °F
Humidity 86%
Rainfall 0.00 in
Snow Depth Not available.
7:08 AM 4:30 PM
Waxing Crescent, 39% visible
METAR KMMU 060635Z AUTO 00000KT 7SM CLR M03/M03 A3013 RMK AO2
Pressure 30.13 in
Visibility 7.0 miles
Clouds Clear
Windchill 29 °F
Dew Point 25 °F
Humidity 86%
Rainfall 0.00 in
Snow Depth Not available.
7:08 AM 4:30 PM
Waxing Crescent, 39% visible
METAR KMMU 060635Z AUTO 00000KT 7SM CLR M03/M03 A3013 RMK AO2

10-Day Weather Forecast

Almanac

Astronomy

Dec. 06, 2016 Rise Set
Actual Time
Civil Twilight
Nautical Twilight
Astronomical Twilight
Moon
Length of Visible Light
Length of Day
Tomorrow will be .
, % of the Moon is Illuminated

Today's Extremes

State Highs State Lows

Community

WunderPhotos

Upload Photos

1,955,932 photos uploaded!

WunderBlog® & News

Nearby

Air Quality

  Air Quality AQ Index Pollutant
Not available.

Snow Depth

Station Depth Elevation

Earthquake Activity

City Distance Mag. Time & Date
Minimum magnitude displayed is 2.5.

Coastal Water Temperatures

Place Temperature

Stations

Nearby Weather Stations

Station Location Temp. Windchill Dew Point Humidity Wind Precip. Elev Updated Type
                   

Watches & Warnings

There are currently no watches in effect.